ENT4066 HEMA-EPWR
Flight info
| Callsign | ENT4066 |
|---|---|
| Flight time | 4h 30m |
| Altitude | 34000 |
| Route | MAK V730 MEMPO M686 LXR P751 AST W8 CVO A16 RASDA M855 TOMBI UA16 AYT UQ23 OSDAN/N0461F360 UQ26 BKZ UG123 MAKOL DCT ARGES DCT KARIL DCT KEKED DCT LENOV L619 LUMVE |
| Aircraft | B738/M-SDE2E3FGHIRWXY/LB1 |
Departure
| Time | 2026-04-30 06:21 |
|---|---|
| Airport | Marsa Alam International Airport (HEMA) |
Arrival
| Time | 2026-04-30 10:51 |
|---|---|
| Airport | Copernicus Wrocław Airport (EPWR) |
| Time | Latitude | Longitude | Altitude | Speed | Heading |
|---|---|---|---|---|---|
| 2026-04-30 05:49 | 25.55379 | 34.59137 | 241 ft | 0 kts | 59° |
| 2026-04-30 06:10 | 25.55375 | 34.59130 | 241 ft | 4 kts | 59° |
| 2026-04-30 06:11 | 25.55370 | 34.59121 | 241 ft | 4 kts | 60° |
| 2026-04-30 06:11 | 25.55364 | 34.59109 | 241 ft | 4 kts | 67° |
| 2026-04-30 06:11 | 25.55360 | 34.59082 | 241 ft | 4 kts | 106° |
| 2026-04-30 06:11 | 25.55373 | 34.59058 | 241 ft | 4 kts | 139° |
| 2026-04-30 06:12 | 25.55390 | 34.59045 | 241 ft | 4 kts | 150° |
| 2026-04-30 06:12 | 25.55399 | 34.59039 | 241 ft | 0 kts | 149° |
| 2026-04-30 06:15 | 25.55397 | 34.59040 | 241 ft | 1 kts | 150° |
| 2026-04-30 06:15 | 25.55365 | 34.59056 | 241 ft | 9 kts | 160° |
| 2026-04-30 06:16 | 25.55297 | 34.59104 | 241 ft | 15 kts | 150° |
| 2026-04-30 06:16 | 25.55204 | 34.59122 | 241 ft | 7 kts | 223° |
| 2026-04-30 06:16 | 25.55176 | 34.59077 | 244 ft | 9 kts | 240° |
| 2026-04-30 06:16 | 25.55139 | 34.59016 | 252 ft | 9 kts | 223° |
| 2026-04-30 06:17 | 25.55083 | 34.59012 | 253 ft | 10 kts | 154° |
| 2026-04-30 06:17 | 25.54991 | 34.59070 | 253 ft | 20 kts | 150° |
| 2026-04-30 06:17 | 25.54866 | 34.59150 | 252 ft | 21 kts | 150° |
| 2026-04-30 06:17 | 25.54749 | 34.59226 | 248 ft | 17 kts | 150° |
| 2026-04-30 06:18 | 25.54652 | 34.59265 | 248 ft | 10 kts | 198° |
| 2026-04-30 06:18 | 25.54623 | 34.59235 | 250 ft | 4 kts | 235° |
| 2026-04-30 06:18 | 25.54608 | 34.59207 | 251 ft | 0 kts | 240° |
| 2026-04-30 06:19 | 25.54605 | 34.59201 | 251 ft | 4 kts | 240° |
| 2026-04-30 06:19 | 25.54578 | 34.59146 | 253 ft | 11 kts | 250° |
| 2026-04-30 06:19 | 25.54586 | 34.59106 | 253 ft | 5 kts | 306° |
| 2026-04-30 06:20 | 25.54632 | 34.59071 | 253 ft | 0 kts | 330° |
| 2026-04-30 06:20 | 25.54640 | 34.59066 | 253 ft | 5 kts | 330° |
| 2026-04-30 06:20 | 25.54827 | 34.58946 | 257 ft | 63 kts | 330° |
| 2026-04-30 06:20 | 25.55396 | 34.58582 | 255 ft | 123 kts | 330° |
| 2026-04-30 06:21 | 25.55955 | 34.58225 | 281 ft | 154 kts | 330° |
| 2026-04-30 06:21 | 25.56909 | 34.57628 | 830 ft | 162 kts | 330° |
| 2026-04-30 06:21 | 25.57797 | 34.56841 | 1399 ft | 171 kts | 303° |
| 2026-04-30 06:21 | 25.58032 | 34.55532 | 2008 ft | 184 kts | 264° |
| 2026-04-30 06:22 | 25.57735 | 34.54041 | 2352 ft | 213 kts | 259° |
| 2026-04-30 06:22 | 25.57324 | 34.52377 | 2593 ft | 233 kts | 257° |
| 2026-04-30 06:22 | 25.56874 | 34.50621 | 3135 ft | 238 kts | 258° |
| 2026-04-30 06:22 | 25.56413 | 34.48807 | 3482 ft | 256 kts | 258° |
| 2026-04-30 06:23 | 25.55921 | 34.46863 | 3999 ft | 267 kts | 257° |
| 2026-04-30 06:23 | 25.55425 | 34.44885 | 4835 ft | 266 kts | 258° |
| 2026-04-30 06:23 | 25.54929 | 34.42900 | 5569 ft | 269 kts | 258° |
| 2026-04-30 06:23 | 25.54431 | 34.40902 | 6361 ft | 270 kts | 257° |
| 2026-04-30 06:24 | 25.53930 | 34.38883 | 7033 ft | 273 kts | 257° |
| 2026-04-30 06:24 | 25.53426 | 34.36847 | 7717 ft | 276 kts | 257° |
| 2026-04-30 06:24 | 25.52916 | 34.34787 | 8424 ft | 278 kts | 257° |
| 2026-04-30 06:24 | 25.52404 | 34.32714 | 9166 ft | 281 kts | 256° |
| 2026-04-30 06:25 | 25.51885 | 34.30618 | 9876 ft | 283 kts | 256° |
| 2026-04-30 06:25 | 25.51362 | 34.28503 | 10408 ft | 291 kts | 256° |
| 2026-04-30 06:25 | 25.50811 | 34.26265 | 10578 ft | 312 kts | 256° |
| 2026-04-30 06:25 | 25.50221 | 34.23875 | 10735 ft | 332 kts | 256° |
| 2026-04-30 06:26 | 25.49594 | 34.21339 | 10891 ft | 351 kts | 256° |
| 2026-04-30 06:26 | 25.48931 | 34.18666 | 11018 ft | 369 kts | 256° |
| 2026-04-30 06:26 | 25.48239 | 34.15876 | 11151 ft | 383 kts | 256° |
| 2026-04-30 06:26 | 25.47526 | 34.13007 | 11540 ft | 388 kts | 256° |
| 2026-04-30 06:27 | 25.46808 | 34.10120 | 12047 ft | 390 kts | 256° |
| 2026-04-30 06:27 | 25.46087 | 34.07220 | 12575 ft | 391 kts | 256° |
| 2026-04-30 06:27 | 25.45364 | 34.04309 | 13087 ft | 393 kts | 256° |
| 2026-04-30 06:27 | 25.44638 | 34.01386 | 13561 ft | 396 kts | 256° |
| 2026-04-30 06:28 | 25.43905 | 33.98441 | 13998 ft | 398 kts | 256° |
| 2026-04-30 06:28 | 25.43185 | 33.95481 | 14444 ft | 398 kts | 259° |
| 2026-04-30 06:28 | 25.42852 | 33.92449 | 14870 ft | 398 kts | 270° |
| 2026-04-30 06:28 | 25.42996 | 33.89387 | 15284 ft | 399 kts | 278° |
| 2026-04-30 06:29 | 25.43602 | 33.86394 | 15679 ft | 400 kts | 287° |
| 2026-04-30 06:29 | 25.44455 | 33.83458 | 16089 ft | 401 kts | 288° |
| 2026-04-30 06:29 | 25.45331 | 33.80519 | 16464 ft | 404 kts | 288° |
| 2026-04-30 06:29 | 25.46201 | 33.77600 | 16847 ft | 405 kts | 288° |
| 2026-04-30 06:30 | 25.47078 | 33.74635 | 17248 ft | 406 kts | 288° |
| 2026-04-30 06:30 | 25.47952 | 33.71654 | 17634 ft | 408 kts | 288° |
| 2026-04-30 06:30 | 25.48822 | 33.68659 | 18006 ft | 410 kts | 288° |
| 2026-04-30 06:30 | 25.49692 | 33.65651 | 18331 ft | 411 kts | 288° |
| 2026-04-30 06:31 | 25.50563 | 33.62626 | 18649 ft | 413 kts | 288° |
| 2026-04-30 06:31 | 25.51434 | 33.59595 | 18977 ft | 414 kts | 288° |
| 2026-04-30 06:31 | 25.52307 | 33.56550 | 19273 ft | 416 kts | 288° |
| 2026-04-30 06:31 | 25.53182 | 33.53498 | 19598 ft | 417 kts | 288° |
| 2026-04-30 06:32 | 25.54060 | 33.50434 | 19911 ft | 418 kts | 288° |
| 2026-04-30 06:32 | 25.54940 | 33.47363 | 20198 ft | 419 kts | 288° |
| 2026-04-30 06:32 | 25.55822 | 33.44279 | 20486 ft | 421 kts | 288° |
| 2026-04-30 06:32 | 25.56706 | 33.41185 | 20776 ft | 422 kts | 288° |
| 2026-04-30 06:33 | 25.57593 | 33.38079 | 21067 ft | 424 kts | 288° |
| 2026-04-30 06:33 | 25.58481 | 33.34964 | 21344 ft | 425 kts | 288° |
| 2026-04-30 06:33 | 25.59373 | 33.31835 | 21623 ft | 426 kts | 288° |
| 2026-04-30 06:33 | 25.60266 | 33.28700 | 21886 ft | 428 kts | 288° |
| 2026-04-30 06:34 | 25.61162 | 33.25552 | 22150 ft | 429 kts | 288° |
| 2026-04-30 06:34 | 25.62059 | 33.22395 | 22413 ft | 430 kts | 288° |
| 2026-04-30 06:34 | 25.62959 | 33.19227 | 22680 ft | 432 kts | 288° |
| 2026-04-30 06:34 | 25.63860 | 33.16051 | 22939 ft | 433 kts | 288° |
| 2026-04-30 06:35 | 25.64763 | 33.12865 | 23190 ft | 434 kts | 288° |
| 2026-04-30 06:35 | 25.65670 | 33.09665 | 23413 ft | 436 kts | 288° |
| 2026-04-30 06:35 | 25.66579 | 33.06452 | 23639 ft | 437 kts | 288° |
| 2026-04-30 06:35 | 25.67489 | 33.03231 | 23860 ft | 438 kts | 288° |
| 2026-04-30 06:36 | 25.68399 | 33.00010 | 24094 ft | 438 kts | 288° |
| 2026-04-30 06:36 | 25.69310 | 32.96783 | 24298 ft | 439 kts | 288° |
| 2026-04-30 06:36 | 25.70220 | 32.93552 | 24526 ft | 439 kts | 288° |
| 2026-04-30 06:36 | 25.71131 | 32.90317 | 24733 ft | 440 kts | 288° |
| 2026-04-30 06:37 | 25.72044 | 32.87073 | 24928 ft | 441 kts | 288° |
| 2026-04-30 06:37 | 25.72958 | 32.83823 | 25109 ft | 442 kts | 288° |
| 2026-04-30 06:37 | 25.73893 | 32.80568 | 25305 ft | 443 kts | 290° |
| 2026-04-30 06:37 | 25.75135 | 32.77448 | 25562 ft | 442 kts | 297° |
| 2026-04-30 06:38 | 25.76691 | 32.74523 | 25883 ft | 440 kts | 303° |
| 2026-04-30 06:38 | 25.78583 | 32.71855 | 26235 ft | 439 kts | 308° |
| 2026-04-30 06:38 | 25.80550 | 32.69273 | 26546 ft | 437 kts | 308° |
| 2026-04-30 06:38 | 25.82512 | 32.66701 | 26824 ft | 437 kts | 308° |
| 2026-04-30 06:39 | 25.84469 | 32.64127 | 27133 ft | 435 kts | 308° |
| 2026-04-30 06:39 | 25.86413 | 32.61556 | 27482 ft | 433 kts | 308° |
| 2026-04-30 06:39 | 25.88341 | 32.58997 | 27889 ft | 431 kts | 308° |
| 2026-04-30 06:39 | 25.90258 | 32.56445 | 28259 ft | 430 kts | 308° |
| 2026-04-30 06:40 | 25.92165 | 32.53900 | 28570 ft | 429 kts | 308° |
| 2026-04-30 06:40 | 25.94074 | 32.51349 | 28880 ft | 428 kts | 308° |
| 2026-04-30 06:40 | 25.95972 | 32.48811 | 29246 ft | 426 kts | 308° |
| 2026-04-30 06:40 | 25.97837 | 32.46315 | 29624 ft | 424 kts | 308° |
| 2026-04-30 06:41 | 25.99744 | 32.43762 | 29981 ft | 423 kts | 307° |
| 2026-04-30 06:41 | 26.01596 | 32.41281 | 30275 ft | 422 kts | 307° |
| 2026-04-30 06:41 | 26.03470 | 32.38770 | 30532 ft | 422 kts | 307° |
| 2026-04-30 06:41 | 26.05340 | 32.36261 | 30798 ft | 421 kts | 307° |
| 2026-04-30 06:42 | 26.07207 | 32.33757 | 31077 ft | 420 kts | 307° |
| 2026-04-30 06:42 | 26.09068 | 32.31259 | 31328 ft | 419 kts | 307° |
| 2026-04-30 06:42 | 26.10930 | 32.28761 | 31540 ft | 419 kts | 307° |
| 2026-04-30 06:42 | 26.12788 | 32.26265 | 31802 ft | 418 kts | 307° |
| 2026-04-30 06:43 | 26.14638 | 32.23778 | 32080 ft | 417 kts | 307° |
| 2026-04-30 06:43 | 26.16482 | 32.21296 | 32321 ft | 416 kts | 307° |
| 2026-04-30 06:43 | 26.18328 | 32.18810 | 32577 ft | 415 kts | 307° |
| 2026-04-30 06:43 | 26.20164 | 32.16338 | 32865 ft | 414 kts | 307° |
| 2026-04-30 06:44 | 26.21994 | 32.13871 | 33123 ft | 413 kts | 307° |
| 2026-04-30 06:44 | 26.23826 | 32.11401 | 33305 ft | 414 kts | 306° |
| 2026-04-30 06:44 | 26.25659 | 32.08928 | 33482 ft | 414 kts | 306° |
| 2026-04-30 06:44 | 26.27490 | 32.06457 | 33702 ft | 413 kts | 306° |
| 2026-04-30 06:45 | 26.29315 | 32.03994 | 33951 ft | 412 kts | 306° |
| 2026-04-30 06:45 | 26.32969 | 31.99054 | 33996 ft | 413 kts | 306° |
| 2026-04-30 06:46 | 26.36613 | 31.94124 | 33983 ft | 410 kts | 306° |
| 2026-04-30 06:46 | 26.40213 | 31.89248 | 33982 ft | 409 kts | 306° |
| 2026-04-30 06:47 | 26.43823 | 31.84353 | 33987 ft | 408 kts | 306° |
| 2026-04-30 06:47 | 26.47429 | 31.79458 | 33975 ft | 408 kts | 306° |
| 2026-04-30 06:48 | 26.51029 | 31.74567 | 33986 ft | 408 kts | 306° |
| 2026-04-30 06:48 | 26.54623 | 31.69677 | 34000 ft | 407 kts | 306° |
| 2026-04-30 06:49 | 26.58218 | 31.64782 | 34012 ft | 407 kts | 306° |
| 2026-04-30 06:49 | 26.61811 | 31.59883 | 34027 ft | 407 kts | 306° |
| 2026-04-30 06:50 | 26.65399 | 31.54988 | 34037 ft | 407 kts | 306° |
| 2026-04-30 06:50 | 26.68985 | 31.50088 | 34046 ft | 407 kts | 306° |
| 2026-04-30 06:51 | 26.72570 | 31.45184 | 34046 ft | 407 kts | 306° |
| 2026-04-30 06:51 | 26.76149 | 31.40283 | 34051 ft | 407 kts | 306° |
| 2026-04-30 06:52 | 26.79701 | 31.35414 | 34052 ft | 406 kts | 306° |
| 2026-04-30 06:52 | 26.83272 | 31.30513 | 34062 ft | 406 kts | 306° |
| 2026-04-30 06:53 | 26.86838 | 31.25614 | 34075 ft | 406 kts | 306° |
| 2026-04-30 06:53 | 26.90402 | 31.20712 | 34084 ft | 406 kts | 306° |
| 2026-04-30 06:54 | 26.93959 | 31.15813 | 34094 ft | 405 kts | 306° |
| 2026-04-30 06:54 | 26.97512 | 31.10916 | 34102 ft | 405 kts | 306° |
| 2026-04-30 06:55 | 27.01382 | 31.06345 | 34102 ft | 412 kts | 322° |
| 2026-04-30 06:55 | 27.03951 | 31.04861 | 34099 ft | 420 kts | 333° |
| 2026-04-30 06:55 | 27.06789 | 31.03940 | 34110 ft | 430 kts | 343° |
| 2026-04-30 06:55 | 27.09819 | 31.03783 | 34112 ft | 443 kts | 355° |
| 2026-04-30 06:56 | 27.12906 | 31.04064 | 34107 ft | 446 kts | 357° |
| 2026-04-30 06:56 | 27.19086 | 31.04843 | 34097 ft | 447 kts | 358° |
| 2026-04-30 06:57 | 27.25270 | 31.05622 | 34083 ft | 447 kts | 358° |
| 2026-04-30 06:57 | 27.31450 | 31.06339 | 34074 ft | 446 kts | 357° |
| 2026-04-30 06:58 | 27.37624 | 31.07027 | 34069 ft | 446 kts | 357° |
| 2026-04-30 06:58 | 27.43753 | 31.07706 | 34057 ft | 445 kts | 357° |
| 2026-04-30 06:59 | 27.49919 | 31.08391 | 34061 ft | 445 kts | 357° |
| 2026-04-30 06:59 | 27.56077 | 31.09078 | 34062 ft | 445 kts | 357° |
| 2026-04-30 07:00 | 27.62237 | 31.09766 | 34061 ft | 444 kts | 357° |
| 2026-04-30 07:00 | 27.68390 | 31.10454 | 34059 ft | 444 kts | 357° |
| 2026-04-30 07:01 | 27.74542 | 31.11142 | 34063 ft | 444 kts | 357° |
| 2026-04-30 07:01 | 27.80696 | 31.11831 | 34068 ft | 445 kts | 357° |
| 2026-04-30 07:02 | 27.86861 | 31.12523 | 34066 ft | 445 kts | 357° |
| 2026-04-30 07:02 | 27.93032 | 31.13216 | 34062 ft | 446 kts | 357° |
| 2026-04-30 07:03 | 27.99206 | 31.13911 | 34060 ft | 446 kts | 357° |
| 2026-04-30 07:03 | 28.05392 | 31.14607 | 34059 ft | 447 kts | 357° |
| 2026-04-30 07:04 | 28.11580 | 31.15298 | 34050 ft | 447 kts | 357° |
| 2026-04-30 07:04 | 28.17774 | 31.15983 | 34065 ft | 447 kts | 357° |
| 2026-04-30 07:05 | 28.27079 | 31.17013 | 34059 ft | 448 kts | 357° |
| 2026-04-30 07:05 | 28.33286 | 31.17702 | 34063 ft | 449 kts | 357° |
| 2026-04-30 07:06 | 28.39502 | 31.18394 | 34053 ft | 449 kts | 357° |
| 2026-04-30 07:06 | 28.45714 | 31.19086 | 34056 ft | 448 kts | 357° |
| 2026-04-30 07:07 | 28.51924 | 31.19779 | 34056 ft | 449 kts | 357° |
| 2026-04-30 07:07 | 28.58137 | 31.20473 | 34053 ft | 449 kts | 358° |
| 2026-04-30 07:08 | 28.64311 | 31.21163 | 34054 ft | 449 kts | 358° |
| 2026-04-30 07:08 | 28.70525 | 31.21859 | 34056 ft | 449 kts | 358° |
| 2026-04-30 07:09 | 28.76740 | 31.22598 | 34052 ft | 449 kts | 358° |
| 2026-04-30 07:09 | 28.82966 | 31.23360 | 34058 ft | 450 kts | 359° |
| 2026-04-30 07:10 | 28.88178 | 31.23997 | 34051 ft | 450 kts | 359° |
| 2026-04-30 07:10 | 28.94407 | 31.24754 | 34051 ft | 450 kts | 359° |
| 2026-04-30 07:11 | 29.00631 | 31.25510 | 34052 ft | 450 kts | 359° |
| 2026-04-30 07:11 | 29.06854 | 31.26266 | 34052 ft | 450 kts | 359° |
| 2026-04-30 07:12 | 29.13033 | 31.27018 | 34053 ft | 449 kts | 359° |
| 2026-04-30 07:12 | 29.19249 | 31.27776 | 34049 ft | 449 kts | 359° |
| 2026-04-30 07:13 | 29.25461 | 31.28534 | 34047 ft | 449 kts | 359° |
| 2026-04-30 07:13 | 29.31661 | 31.29292 | 34048 ft | 448 kts | 359° |
| 2026-04-30 07:14 | 29.37856 | 31.30049 | 34042 ft | 447 kts | 359° |
| 2026-04-30 07:14 | 29.44034 | 31.30805 | 34045 ft | 446 kts | 359° |
| 2026-04-30 07:15 | 29.50200 | 31.31556 | 34048 ft | 445 kts | 359° |
| 2026-04-30 07:15 | 29.56355 | 31.32307 | 34045 ft | 444 kts | 359° |
| 2026-04-30 07:16 | 29.62501 | 31.33059 | 34043 ft | 444 kts | 359° |
| 2026-04-30 07:16 | 29.68642 | 31.33810 | 34044 ft | 443 kts | 359° |
| 2026-04-30 07:17 | 29.74776 | 31.34562 | 34048 ft | 443 kts | 359° |
| 2026-04-30 07:18 | 29.83976 | 31.35691 | 34054 ft | 444 kts | 359° |
| 2026-04-30 07:18 | 29.90148 | 31.36448 | 34061 ft | 448 kts | 359° |
| 2026-04-30 07:19 | 29.96360 | 31.37213 | 34056 ft | 450 kts | 359° |
| 2026-04-30 07:19 | 30.02560 | 31.37979 | 34051 ft | 452 kts | 359° |
| 2026-04-30 07:20 | 30.08809 | 31.38644 | 34047 ft | 447 kts | 354° |
| 2026-04-30 07:20 | 30.14889 | 31.37883 | 34057 ft | 437 kts | 344° |
| 2026-04-30 07:21 | 30.20886 | 31.36721 | 34053 ft | 437 kts | 344° |
| 2026-04-30 07:21 | 30.26890 | 31.35581 | 34050 ft | 437 kts | 345° |
| 2026-04-30 07:22 | 30.35888 | 31.33920 | 34053 ft | 436 kts | 345° |
| 2026-04-30 07:22 | 30.41881 | 31.32822 | 34053 ft | 436 kts | 345° |
| 2026-04-30 07:23 | 30.47871 | 31.31723 | 34058 ft | 435 kts | 345° |
| 2026-04-30 07:23 | 30.53852 | 31.30624 | 34060 ft | 435 kts | 345° |
| 2026-04-30 07:24 | 30.59828 | 31.29524 | 34058 ft | 435 kts | 345° |
| 2026-04-30 07:24 | 30.65805 | 31.28421 | 34060 ft | 434 kts | 345° |
| 2026-04-30 07:25 | 30.71775 | 31.27320 | 34061 ft | 434 kts | 345° |
| 2026-04-30 07:25 | 30.77706 | 31.26223 | 34066 ft | 434 kts | 345° |
| 2026-04-30 07:26 | 30.83674 | 31.25119 | 34068 ft | 434 kts | 345° |
| 2026-04-30 07:26 | 30.89643 | 31.24013 | 34062 ft | 434 kts | 345° |
| 2026-04-30 07:27 | 30.95610 | 31.22906 | 34067 ft | 434 kts | 345° |
| 2026-04-30 07:27 | 31.01581 | 31.21797 | 34064 ft | 435 kts | 344° |
| 2026-04-30 07:28 | 31.07553 | 31.20686 | 34068 ft | 435 kts | 344° |
| 2026-04-30 07:28 | 31.13530 | 31.19573 | 34069 ft | 435 kts | 345° |
| 2026-04-30 07:29 | 31.19512 | 31.18457 | 34072 ft | 435 kts | 345° |
| 2026-04-30 07:29 | 31.25499 | 31.17341 | 34070 ft | 436 kts | 345° |
| 2026-04-30 07:30 | 31.34494 | 31.15690 | 34075 ft | 436 kts | 345° |
| 2026-04-30 07:31 | 31.40496 | 31.14588 | 34077 ft | 437 kts | 345° |
| 2026-04-30 07:31 | 31.46500 | 31.13481 | 34075 ft | 437 kts | 345° |
| 2026-04-30 07:32 | 31.52508 | 31.12374 | 34082 ft | 437 kts | 345° |
| 2026-04-30 07:32 | 31.58586 | 31.11576 | 34082 ft | 440 kts | 348° |
| 2026-04-30 07:33 | 31.64697 | 31.10975 | 34077 ft | 441 kts | 348° |
| 2026-04-30 07:33 | 31.70803 | 31.10353 | 34083 ft | 440 kts | 348° |
| 2026-04-30 07:34 | 31.76899 | 31.09698 | 34086 ft | 440 kts | 348° |
| 2026-04-30 07:34 | 31.82991 | 31.09032 | 34088 ft | 439 kts | 348° |
| 2026-04-30 07:35 | 31.89077 | 31.08367 | 34088 ft | 439 kts | 348° |
| 2026-04-30 07:35 | 31.95125 | 31.07706 | 34092 ft | 439 kts | 348° |
| 2026-04-30 07:36 | 32.01205 | 31.07041 | 34091 ft | 439 kts | 348° |
| 2026-04-30 07:36 | 32.07288 | 31.06375 | 34091 ft | 439 kts | 348° |
| 2026-04-30 07:37 | 32.13365 | 31.05710 | 34092 ft | 439 kts | 348° |
| 2026-04-30 07:37 | 32.19445 | 31.05043 | 34080 ft | 439 kts | 348° |
| 2026-04-30 07:38 | 32.25520 | 31.04376 | 34094 ft | 438 kts | 348° |
| 2026-04-30 07:38 | 32.31598 | 31.03707 | 34085 ft | 439 kts | 348° |
| 2026-04-30 07:39 | 32.37674 | 31.03038 | 34087 ft | 439 kts | 348° |
| 2026-04-30 07:39 | 32.43750 | 31.02367 | 34084 ft | 439 kts | 348° |
| 2026-04-30 07:40 | 32.49830 | 31.01696 | 34090 ft | 439 kts | 348° |
| 2026-04-30 07:40 | 32.55910 | 31.01023 | 34089 ft | 439 kts | 348° |
| 2026-04-30 07:41 | 32.61995 | 31.00350 | 34088 ft | 439 kts | 348° |
| 2026-04-30 07:41 | 32.68078 | 30.99675 | 34086 ft | 439 kts | 348° |
| 2026-04-30 07:42 | 32.74164 | 30.98999 | 34089 ft | 439 kts | 348° |
| 2026-04-30 07:42 | 32.80248 | 30.98322 | 34080 ft | 439 kts | 348° |
| 2026-04-30 07:43 | 32.86334 | 30.97645 | 34089 ft | 439 kts | 348° |
| 2026-04-30 07:43 | 32.92419 | 30.96966 | 34088 ft | 439 kts | 348° |
| 2026-04-30 07:44 | 32.98500 | 30.96287 | 34085 ft | 439 kts | 348° |
| 2026-04-30 07:44 | 33.04581 | 30.95607 | 34082 ft | 439 kts | 349° |
| 2026-04-30 07:45 | 33.10665 | 30.94945 | 34078 ft | 440 kts | 350° |
| 2026-04-30 07:45 | 33.16793 | 30.94640 | 34079 ft | 442 kts | 352° |
| 2026-04-30 07:46 | 33.22897 | 30.94475 | 34082 ft | 442 kts | 353° |
| 2026-04-30 07:46 | 33.29041 | 30.94285 | 34082 ft | 441 kts | 352° |
| 2026-04-30 07:47 | 33.35180 | 30.94065 | 34080 ft | 441 kts | 352° |
| 2026-04-30 07:47 | 33.41318 | 30.93835 | 34083 ft | 441 kts | 352° |
| 2026-04-30 07:48 | 33.47455 | 30.93603 | 34079 ft | 441 kts | 352° |
| 2026-04-30 07:48 | 33.53595 | 30.93372 | 34077 ft | 441 kts | 353° |
| 2026-04-30 07:49 | 33.59738 | 30.93142 | 34075 ft | 442 kts | 353° |
| 2026-04-30 07:49 | 33.65885 | 30.92911 | 34082 ft | 442 kts | 353° |
| 2026-04-30 07:50 | 33.72032 | 30.92679 | 34078 ft | 442 kts | 353° |
| 2026-04-30 07:50 | 33.78187 | 30.92447 | 34076 ft | 443 kts | 353° |
| 2026-04-30 07:51 | 33.84350 | 30.92214 | 34074 ft | 443 kts | 353° |
| 2026-04-30 07:51 | 33.90519 | 30.91981 | 34077 ft | 444 kts | 353° |
| 2026-04-30 07:52 | 33.96697 | 30.91741 | 34074 ft | 444 kts | 352° |
| 2026-04-30 07:52 | 34.02877 | 30.91405 | 34074 ft | 445 kts | 352° |
| 2026-04-30 07:53 | 34.09021 | 30.91048 | 34084 ft | 445 kts | 352° |
| 2026-04-30 07:53 | 34.15216 | 30.90701 | 34073 ft | 446 kts | 352° |
| 2026-04-30 07:54 | 34.21423 | 30.90359 | 34072 ft | 447 kts | 353° |
| 2026-04-30 07:54 | 34.27645 | 30.90023 | 34072 ft | 448 kts | 353° |
| 2026-04-30 07:55 | 34.33876 | 30.89710 | 34072 ft | 449 kts | 353° |
| 2026-04-30 07:55 | 34.40123 | 30.89397 | 34074 ft | 449 kts | 353° |
| 2026-04-30 07:56 | 34.46379 | 30.89080 | 34073 ft | 450 kts | 353° |
| 2026-04-30 07:56 | 34.52640 | 30.88762 | 34073 ft | 451 kts | 353° |
| 2026-04-30 07:57 | 34.58910 | 30.88442 | 34068 ft | 452 kts | 354° |
| 2026-04-30 07:57 | 34.65200 | 30.88154 | 34074 ft | 453 kts | 355° |
| 2026-04-30 07:58 | 34.71500 | 30.87963 | 34066 ft | 453 kts | 355° |
| 2026-04-30 07:58 | 34.77809 | 30.87780 | 34061 ft | 454 kts | 355° |
| 2026-04-30 07:59 | 34.83059 | 30.87618 | 34069 ft | 454 kts | 355° |
| 2026-04-30 07:59 | 34.90401 | 30.87383 | 34074 ft | 454 kts | 355° |
| 2026-04-30 08:00 | 34.98860 | 30.87110 | 34068 ft | 455 kts | 355° |
| 2026-04-30 08:00 | 35.05144 | 30.86908 | 34065 ft | 455 kts | 356° |
| 2026-04-30 08:01 | 35.11467 | 30.86704 | 34069 ft | 455 kts | 356° |
| 2026-04-30 08:01 | 35.17796 | 30.86500 | 34069 ft | 455 kts | 356° |
| 2026-04-30 08:02 | 35.27290 | 30.86179 | 34065 ft | 455 kts | 356° |
| 2026-04-30 08:03 | 35.39956 | 30.85745 | 34066 ft | 456 kts | 356° |
| 2026-04-30 08:04 | 35.46294 | 30.85528 | 34064 ft | 456 kts | 356° |
| 2026-04-30 08:04 | 35.52638 | 30.85311 | 34063 ft | 456 kts | 356° |
| 2026-04-30 08:05 | 35.58985 | 30.85093 | 34064 ft | 456 kts | 356° |
| 2026-04-30 08:05 | 35.65330 | 30.84826 | 34064 ft | 456 kts | 355° |
| 2026-04-30 08:06 | 35.71673 | 30.84421 | 34063 ft | 456 kts | 355° |
| 2026-04-30 08:06 | 35.78017 | 30.84007 | 34060 ft | 457 kts | 355° |
| 2026-04-30 08:07 | 35.84367 | 30.83612 | 34062 ft | 457 kts | 355° |
| 2026-04-30 08:07 | 35.90717 | 30.83223 | 34067 ft | 457 kts | 355° |
| 2026-04-30 08:08 | 35.97074 | 30.82833 | 34060 ft | 457 kts | 355° |
| 2026-04-30 08:08 | 36.03430 | 30.82441 | 34061 ft | 457 kts | 355° |
| 2026-04-30 08:09 | 36.09793 | 30.82165 | 34063 ft | 458 kts | 356° |
| 2026-04-30 08:09 | 36.16162 | 30.81995 | 34062 ft | 458 kts | 356° |
| 2026-04-30 08:10 | 36.22537 | 30.81811 | 34059 ft | 458 kts | 356° |
| 2026-04-30 08:10 | 36.28909 | 30.81609 | 34058 ft | 458 kts | 356° |
| 2026-04-30 08:11 | 36.35284 | 30.81403 | 34056 ft | 458 kts | 356° |
| 2026-04-30 08:11 | 36.41663 | 30.81198 | 34054 ft | 458 kts | 356° |
| 2026-04-30 08:12 | 36.48031 | 30.80978 | 34055 ft | 459 kts | 356° |
| 2026-04-30 08:12 | 36.54375 | 30.80749 | 34052 ft | 459 kts | 356° |
| 2026-04-30 08:13 | 36.60758 | 30.80520 | 34047 ft | 459 kts | 356° |
| 2026-04-30 08:13 | 36.67140 | 30.80292 | 34051 ft | 459 kts | 356° |
| 2026-04-30 08:14 | 36.73530 | 30.80065 | 34050 ft | 459 kts | 356° |
| 2026-04-30 08:14 | 36.79915 | 30.79837 | 34051 ft | 459 kts | 356° |
| 2026-04-30 08:15 | 36.86297 | 30.79608 | 34054 ft | 458 kts | 356° |
| 2026-04-30 08:15 | 36.92673 | 30.79433 | 34044 ft | 459 kts | 0° |
| 2026-04-30 08:16 | 36.99052 | 30.80182 | 34054 ft | 461 kts | 5° |
| 2026-04-30 08:16 | 37.05417 | 30.81193 | 34050 ft | 461 kts | 5° |
| 2026-04-30 08:17 | 37.11792 | 30.82171 | 34053 ft | 461 kts | 4° |
| 2026-04-30 08:17 | 37.18166 | 30.83096 | 34059 ft | 461 kts | 4° |
| 2026-04-30 08:18 | 37.24542 | 30.84002 | 34065 ft | 461 kts | 4° |
| 2026-04-30 08:18 | 37.30924 | 30.84909 | 34071 ft | 461 kts | 4° |
| 2026-04-30 08:19 | 37.37304 | 30.85817 | 34067 ft | 462 kts | 4° |
| 2026-04-30 08:19 | 37.43685 | 30.86729 | 34072 ft | 461 kts | 4° |
| 2026-04-30 08:20 | 37.50062 | 30.87642 | 34066 ft | 461 kts | 4° |
| 2026-04-30 08:20 | 37.56436 | 30.88556 | 34077 ft | 462 kts | 4° |
| 2026-04-30 08:21 | 37.62778 | 30.89468 | 34079 ft | 462 kts | 4° |
| 2026-04-30 08:21 | 37.69171 | 30.90388 | 34089 ft | 463 kts | 4° |
| 2026-04-30 08:22 | 37.75560 | 30.91310 | 34092 ft | 461 kts | 4° |
| 2026-04-30 08:22 | 37.81803 | 30.92217 | 34068 ft | 437 kts | 3° |
| 2026-04-30 08:22 | 37.84777 | 30.92651 | 34075 ft | 424 kts | 3° |
| 2026-04-30 08:23 | 37.87652 | 30.93070 | 34058 ft | 409 kts | 3° |
| 2026-04-30 08:23 | 37.93214 | 30.93877 | 34101 ft | 402 kts | 3° |
| 2026-04-30 08:24 | 37.98854 | 30.94690 | 34114 ft | 413 kts | 3° |
| 2026-04-30 08:24 | 38.04638 | 30.95527 | 34110 ft | 424 kts | 3° |
| 2026-04-30 08:25 | 38.10490 | 30.96381 | 34069 ft | 413 kts | 3° |
| 2026-04-30 08:25 | 38.13297 | 30.96795 | 34070 ft | 399 kts | 3° |
| 2026-04-30 08:25 | 38.16021 | 30.97195 | 34064 ft | 393 kts | 3° |
| 2026-04-30 08:26 | 38.21519 | 30.97989 | 34085 ft | 403 kts | 3° |
| 2026-04-30 08:26 | 38.27176 | 30.98812 | 34090 ft | 415 kts | 3° |
| 2026-04-30 08:27 | 38.32947 | 30.99657 | 34075 ft | 426 kts | 3° |
| 2026-04-30 08:27 | 38.38908 | 31.00531 | 34085 ft | 436 kts | 3° |
| 2026-04-30 08:28 | 38.45005 | 31.01387 | 34072 ft | 444 kts | 358° |
| 2026-04-30 08:28 | 38.48053 | 31.01016 | 34076 ft | 439 kts | 342° |
| 2026-04-30 08:28 | 38.50900 | 30.99654 | 34043 ft | 437 kts | 327° |
| 2026-04-30 08:29 | 38.55897 | 30.95239 | 34077 ft | 441 kts | 321° |
| 2026-04-30 08:29 | 38.60922 | 30.90700 | 34059 ft | 441 kts | 322° |
| 2026-04-30 08:30 | 38.66896 | 30.85400 | 34052 ft | 437 kts | 322° |
| 2026-04-30 08:30 | 38.72219 | 30.80649 | 34059 ft | 445 kts | 322° |
| 2026-04-30 08:31 | 38.77329 | 30.76069 | 34050 ft | 450 kts | 322° |
| 2026-04-30 08:31 | 38.82440 | 30.71484 | 34042 ft | 447 kts | 322° |
| 2026-04-30 08:32 | 38.87651 | 30.67169 | 34068 ft | 447 kts | 328° |
| 2026-04-30 08:32 | 38.90409 | 30.65359 | 34335 ft | 444 kts | 330° |
| 2026-04-30 08:32 | 38.93185 | 30.63623 | 34565 ft | 443 kts | 330° |
| 2026-04-30 08:32 | 38.95952 | 30.61903 | 34804 ft | 441 kts | 330° |
| 2026-04-30 08:33 | 38.98701 | 30.60176 | 35032 ft | 439 kts | 330° |
| 2026-04-30 08:33 | 39.01428 | 30.58437 | 35273 ft | 436 kts | 329° |
| 2026-04-30 08:33 | 39.04136 | 30.56689 | 35516 ft | 434 kts | 329° |
| 2026-04-30 08:33 | 39.06827 | 30.54939 | 35761 ft | 432 kts | 329° |
| 2026-04-30 08:34 | 39.09461 | 30.53221 | 36006 ft | 429 kts | 329° |
| 2026-04-30 08:34 | 39.14816 | 30.49716 | 36083 ft | 435 kts | 329° |
| 2026-04-30 08:35 | 39.20256 | 30.46146 | 36088 ft | 442 kts | 329° |
| 2026-04-30 08:35 | 39.25777 | 30.42519 | 36085 ft | 448 kts | 329° |
| 2026-04-30 08:36 | 39.31353 | 30.38851 | 36082 ft | 449 kts | 329° |
| 2026-04-30 08:36 | 39.36728 | 30.35083 | 36068 ft | 432 kts | 327° |
| 2026-04-30 08:37 | 39.41992 | 30.31341 | 35985 ft | 424 kts | 313° |
| 2026-04-30 08:37 | 39.44245 | 30.29013 | 36108 ft | 420 kts | 317° |
| 2026-04-30 08:37 | 39.46573 | 30.26729 | 36076 ft | 427 kts | 324° |
| 2026-04-30 08:38 | 39.52081 | 30.23548 | 36071 ft | 441 kts | 341° |
| 2026-04-30 08:38 | 39.54257 | 30.23119 | 35837 ft | 440 kts | 347° |
| 2026-04-30 08:38 | 39.57244 | 30.22316 | 35691 ft | 432 kts | 339° |
| 2026-04-30 08:38 | 39.60097 | 30.21171 | 35885 ft | 428 kts | 335° |
| 2026-04-30 08:39 | 39.62880 | 30.19811 | 35973 ft | 428 kts | 333° |
| 2026-04-30 08:39 | 39.68394 | 30.16824 | 36075 ft | 432 kts | 332° |
| 2026-04-30 08:40 | 39.73976 | 30.13764 | 36085 ft | 437 kts | 332° |
| 2026-04-30 08:40 | 39.79577 | 30.10745 | 36065 ft | 434 kts | 332° |
| 2026-04-30 08:41 | 39.85143 | 30.07757 | 36070 ft | 432 kts | 332° |
| 2026-04-30 08:41 | 39.90699 | 30.04767 | 36081 ft | 434 kts | 332° |
| 2026-04-30 08:42 | 39.96291 | 30.01752 | 36079 ft | 436 kts | 332° |
| 2026-04-30 08:42 | 40.01884 | 29.98730 | 36070 ft | 434 kts | 332° |
| 2026-04-30 08:43 | 40.07448 | 29.95717 | 36076 ft | 432 kts | 332° |
| 2026-04-30 08:43 | 40.12986 | 29.92711 | 36094 ft | 430 kts | 332° |
| 2026-04-30 08:44 | 40.18473 | 29.89726 | 36101 ft | 430 kts | 332° |
| 2026-04-30 08:44 | 40.23996 | 29.86717 | 36105 ft | 430 kts | 332° |
| 2026-04-30 08:45 | 40.29525 | 29.83699 | 36106 ft | 431 kts | 332° |
| 2026-04-30 08:45 | 40.35084 | 29.80658 | 36109 ft | 434 kts | 332° |
| 2026-04-30 08:46 | 40.40658 | 29.77606 | 36103 ft | 433 kts | 332° |
| 2026-04-30 08:46 | 40.46201 | 29.74568 | 36100 ft | 430 kts | 332° |
| 2026-04-30 08:47 | 40.51719 | 29.71534 | 36116 ft | 430 kts | 332° |
| 2026-04-30 08:47 | 40.57245 | 29.68489 | 36102 ft | 431 kts | 332° |
| 2026-04-30 08:48 | 40.62770 | 29.65442 | 36122 ft | 431 kts | 332° |
| 2026-04-30 08:48 | 40.67212 | 29.62589 | 36111 ft | 422 kts | 319° |
| 2026-04-30 08:49 | 40.71804 | 29.57839 | 36133 ft | 419 kts | 316° |
| 2026-04-30 08:49 | 40.76314 | 29.52953 | 36140 ft | 420 kts | 316° |
| 2026-04-30 08:50 | 40.80856 | 29.48101 | 36153 ft | 420 kts | 316° |
| 2026-04-30 08:50 | 40.85417 | 29.43276 | 36152 ft | 419 kts | 316° |
| 2026-04-30 08:50 | 40.87485 | 29.40976 | 36271 ft | 414 kts | 314° |
| 2026-04-30 08:51 | 40.89695 | 29.38473 | 36141 ft | 420 kts | 316° |
| 2026-04-30 08:51 | 40.94308 | 29.33734 | 36166 ft | 420 kts | 317° |
| 2026-04-30 08:52 | 40.98871 | 29.29017 | 36160 ft | 419 kts | 317° |
| 2026-04-30 08:52 | 41.03451 | 29.24168 | 36160 ft | 419 kts | 316° |
| 2026-04-30 08:53 | 41.07992 | 29.19327 | 36162 ft | 419 kts | 316° |
| 2026-04-30 08:53 | 41.13037 | 29.15379 | 36164 ft | 431 kts | 336° |
| 2026-04-30 08:54 | 41.19038 | 29.14161 | 36163 ft | 446 kts | 354° |
| 2026-04-30 08:54 | 41.25243 | 29.14335 | 36157 ft | 450 kts | 355° |
| 2026-04-30 08:55 | 41.31508 | 29.14513 | 36159 ft | 452 kts | 355° |
| 2026-04-30 08:55 | 41.37783 | 29.14605 | 36143 ft | 448 kts | 354° |
| 2026-04-30 08:56 | 41.43987 | 29.14676 | 36163 ft | 444 kts | 354° |
| 2026-04-30 08:56 | 41.50177 | 29.14709 | 36176 ft | 447 kts | 353° |
| 2026-04-30 08:57 | 41.56419 | 29.14659 | 36175 ft | 450 kts | 353° |
| 2026-04-30 08:57 | 41.62705 | 29.14610 | 36163 ft | 451 kts | 353° |
| 2026-04-30 08:58 | 41.68944 | 29.14579 | 36163 ft | 445 kts | 353° |
| 2026-04-30 08:58 | 41.75131 | 29.14546 | 36184 ft | 445 kts | 353° |
| 2026-04-30 08:59 | 41.81349 | 29.14507 | 36184 ft | 448 kts | 353° |
| 2026-04-30 08:59 | 41.87592 | 29.14471 | 36171 ft | 448 kts | 353° |
| 2026-04-30 09:00 | 41.93815 | 29.14437 | 36176 ft | 447 kts | 353° |
| 2026-04-30 09:00 | 41.99911 | 29.14410 | 36156 ft | 426 kts | 353° |
| 2026-04-30 09:01 | 42.05726 | 29.14378 | 36167 ft | 409 kts | 352° |
| 2026-04-30 09:01 | 42.11403 | 29.14334 | 36201 ft | 411 kts | 352° |
| 2026-04-30 09:02 | 42.19439 | 29.11742 | 36174 ft | 390 kts | 315° |
| 2026-04-30 09:02 | 42.23578 | 29.06960 | 36195 ft | 395 kts | 313° |
| 2026-04-30 09:03 | 42.27744 | 29.01995 | 36197 ft | 404 kts | 313° |
| 2026-04-30 09:03 | 42.32010 | 28.96953 | 36197 ft | 411 kts | 313° |
| 2026-04-30 09:04 | 42.36373 | 28.91831 | 36198 ft | 419 kts | 313° |
| 2026-04-30 09:04 | 42.40805 | 28.86636 | 36199 ft | 425 kts | 313° |
| 2026-04-30 09:05 | 42.45292 | 28.81371 | 36199 ft | 428 kts | 313° |
| 2026-04-30 09:05 | 42.49775 | 28.76102 | 36200 ft | 430 kts | 313° |
| 2026-04-30 09:06 | 42.54299 | 28.70772 | 36196 ft | 431 kts | 313° |
| 2026-04-30 09:06 | 42.58817 | 28.65438 | 36198 ft | 430 kts | 313° |
| 2026-04-30 09:07 | 42.63325 | 28.60104 | 36200 ft | 429 kts | 313° |
| 2026-04-30 09:07 | 42.67817 | 28.54780 | 36201 ft | 428 kts | 313° |
| 2026-04-30 09:08 | 42.72294 | 28.49461 | 36201 ft | 427 kts | 313° |
| 2026-04-30 09:08 | 42.76754 | 28.44151 | 36209 ft | 426 kts | 313° |
| 2026-04-30 09:09 | 42.81203 | 28.38843 | 36210 ft | 425 kts | 313° |
| 2026-04-30 09:09 | 42.85640 | 28.33540 | 36209 ft | 424 kts | 312° |
| 2026-04-30 09:10 | 42.90071 | 28.28233 | 36218 ft | 424 kts | 312° |
| 2026-04-30 09:10 | 42.94493 | 28.22925 | 36215 ft | 423 kts | 312° |
| 2026-04-30 09:11 | 42.98910 | 28.17615 | 36213 ft | 423 kts | 312° |
| 2026-04-30 09:11 | 43.02326 | 28.13500 | 36214 ft | 423 kts | 312° |
| 2026-04-30 09:12 | 43.06735 | 28.08180 | 36219 ft | 423 kts | 312° |
| 2026-04-30 09:12 | 43.11144 | 28.02848 | 36213 ft | 423 kts | 312° |
| 2026-04-30 09:13 | 43.15546 | 27.97516 | 36215 ft | 423 kts | 312° |
| 2026-04-30 09:13 | 43.19949 | 27.92170 | 36217 ft | 423 kts | 312° |
| 2026-04-30 09:14 | 43.24318 | 27.86856 | 36223 ft | 423 kts | 312° |
| 2026-04-30 09:14 | 43.28719 | 27.81492 | 36222 ft | 423 kts | 312° |
| 2026-04-30 09:15 | 43.33118 | 27.76120 | 36220 ft | 423 kts | 311° |
| 2026-04-30 09:15 | 43.37511 | 27.70744 | 36218 ft | 423 kts | 311° |
| 2026-04-30 09:16 | 43.41900 | 27.65362 | 36211 ft | 423 kts | 311° |
| 2026-04-30 09:16 | 43.46284 | 27.59976 | 36219 ft | 422 kts | 311° |
| 2026-04-30 09:17 | 43.50661 | 27.54586 | 36214 ft | 422 kts | 311° |
| 2026-04-30 09:17 | 43.55035 | 27.49191 | 36221 ft | 422 kts | 311° |
| 2026-04-30 09:18 | 43.59404 | 27.43790 | 36222 ft | 422 kts | 311° |
| 2026-04-30 09:18 | 43.63766 | 27.38385 | 36224 ft | 421 kts | 311° |
| 2026-04-30 09:19 | 43.68127 | 27.32972 | 36219 ft | 422 kts | 311° |
| 2026-04-30 09:19 | 43.72487 | 27.27548 | 36226 ft | 422 kts | 311° |
| 2026-04-30 09:20 | 43.76857 | 27.22101 | 36232 ft | 423 kts | 311° |
| 2026-04-30 09:20 | 43.81234 | 27.16633 | 36234 ft | 424 kts | 311° |
| 2026-04-30 09:21 | 43.85589 | 27.11184 | 36236 ft | 425 kts | 311° |
| 2026-04-30 09:21 | 43.89979 | 27.05679 | 36245 ft | 426 kts | 311° |
| 2026-04-30 09:22 | 43.94372 | 27.00158 | 36232 ft | 426 kts | 311° |
| 2026-04-30 09:22 | 43.98764 | 26.94626 | 36242 ft | 427 kts | 311° |
| 2026-04-30 09:23 | 44.03160 | 26.89078 | 36261 ft | 427 kts | 312° |
| 2026-04-30 09:23 | 44.07562 | 26.83511 | 36264 ft | 428 kts | 312° |
| 2026-04-30 09:24 | 44.12164 | 26.78179 | 36263 ft | 432 kts | 316° |
| 2026-04-30 09:24 | 44.16943 | 26.73091 | 36259 ft | 432 kts | 317° |
| 2026-04-30 09:25 | 44.21696 | 26.68015 | 36263 ft | 430 kts | 316° |
| 2026-04-30 09:25 | 44.26360 | 26.62796 | 36277 ft | 430 kts | 315° |
| 2026-04-30 09:26 | 44.31001 | 26.57514 | 36279 ft | 431 kts | 315° |
| 2026-04-30 09:26 | 44.35653 | 26.52223 | 36282 ft | 432 kts | 315° |
| 2026-04-30 09:27 | 44.40319 | 26.46925 | 36281 ft | 432 kts | 315° |
| 2026-04-30 09:27 | 44.44985 | 26.41624 | 36288 ft | 432 kts | 315° |
| 2026-04-30 09:28 | 44.49654 | 26.36310 | 36289 ft | 433 kts | 315° |
| 2026-04-30 09:28 | 44.54325 | 26.30982 | 36294 ft | 433 kts | 315° |
| 2026-04-30 09:29 | 44.58963 | 26.25680 | 36294 ft | 433 kts | 315° |
| 2026-04-30 09:29 | 44.63630 | 26.20333 | 36292 ft | 433 kts | 316° |
| 2026-04-30 09:30 | 44.68290 | 26.14983 | 36299 ft | 433 kts | 316° |
| 2026-04-30 09:30 | 44.72956 | 26.09613 | 36298 ft | 434 kts | 316° |
| 2026-04-30 09:31 | 44.77632 | 26.04221 | 36300 ft | 434 kts | 316° |
| 2026-04-30 09:31 | 44.82306 | 25.98820 | 36299 ft | 435 kts | 316° |
| 2026-04-30 09:32 | 44.86975 | 25.93415 | 36302 ft | 435 kts | 316° |
| 2026-04-30 09:32 | 44.91643 | 25.87996 | 36300 ft | 435 kts | 316° |
| 2026-04-30 09:33 | 44.96310 | 25.82569 | 36303 ft | 435 kts | 316° |
| 2026-04-30 09:33 | 45.00978 | 25.77126 | 36298 ft | 435 kts | 316° |
| 2026-04-30 09:34 | 45.05643 | 25.71676 | 36298 ft | 435 kts | 316° |
| 2026-04-30 09:34 | 45.10309 | 25.66214 | 36297 ft | 435 kts | 316° |
| 2026-04-30 09:35 | 45.14971 | 25.60744 | 36291 ft | 436 kts | 316° |
| 2026-04-30 09:35 | 45.19632 | 25.55263 | 36302 ft | 435 kts | 316° |
| 2026-04-30 09:36 | 45.24297 | 25.49765 | 36312 ft | 436 kts | 316° |
| 2026-04-30 09:36 | 45.28968 | 25.44247 | 36296 ft | 437 kts | 316° |
| 2026-04-30 09:37 | 45.33647 | 25.38708 | 36307 ft | 438 kts | 316° |
| 2026-04-30 09:37 | 45.37536 | 25.34096 | 36310 ft | 439 kts | 316° |
| 2026-04-30 09:38 | 45.42222 | 25.28526 | 36312 ft | 439 kts | 316° |
| 2026-04-30 09:38 | 45.46915 | 25.22935 | 36312 ft | 440 kts | 316° |
| 2026-04-30 09:39 | 45.51616 | 25.17322 | 36307 ft | 441 kts | 316° |
| 2026-04-30 09:39 | 45.56324 | 25.11689 | 36310 ft | 442 kts | 316° |
| 2026-04-30 09:40 | 45.61029 | 25.06046 | 36304 ft | 442 kts | 316° |
| 2026-04-30 09:40 | 45.65739 | 25.00384 | 36301 ft | 442 kts | 316° |
| 2026-04-30 09:41 | 45.70448 | 24.94710 | 36295 ft | 443 kts | 316° |
| 2026-04-30 09:41 | 45.75167 | 24.89011 | 36290 ft | 444 kts | 316° |
| 2026-04-30 09:42 | 45.79890 | 24.83295 | 36296 ft | 445 kts | 316° |
| 2026-04-30 09:42 | 45.84615 | 24.77563 | 36292 ft | 445 kts | 316° |
| 2026-04-30 09:43 | 45.89344 | 24.71813 | 36287 ft | 446 kts | 317° |
| 2026-04-30 09:43 | 45.94081 | 24.66040 | 36292 ft | 447 kts | 317° |
| 2026-04-30 09:44 | 45.98821 | 24.60249 | 36286 ft | 447 kts | 317° |
| 2026-04-30 09:44 | 46.03566 | 24.54440 | 36281 ft | 448 kts | 317° |
| 2026-04-30 09:45 | 46.08307 | 24.48621 | 36289 ft | 448 kts | 317° |
| 2026-04-30 09:45 | 46.13057 | 24.42778 | 36283 ft | 449 kts | 317° |
| 2026-04-30 09:46 | 46.17804 | 24.36923 | 36284 ft | 449 kts | 317° |
| 2026-04-30 09:46 | 46.22523 | 24.31092 | 36289 ft | 450 kts | 317° |
| 2026-04-30 09:47 | 46.27272 | 24.25208 | 36289 ft | 450 kts | 317° |
| 2026-04-30 09:47 | 46.32022 | 24.19310 | 36286 ft | 450 kts | 317° |
| 2026-04-30 09:48 | 46.36768 | 24.13401 | 36291 ft | 450 kts | 317° |
| 2026-04-30 09:48 | 46.41516 | 24.07476 | 36283 ft | 450 kts | 317° |
| 2026-04-30 09:49 | 46.46260 | 24.01543 | 36289 ft | 450 kts | 317° |
| 2026-04-30 09:49 | 46.51000 | 23.95601 | 36284 ft | 451 kts | 317° |
| 2026-04-30 09:50 | 46.55743 | 23.89639 | 36284 ft | 451 kts | 317° |
| 2026-04-30 09:50 | 46.60486 | 23.83664 | 36287 ft | 451 kts | 317° |
| 2026-04-30 09:51 | 46.65233 | 23.77670 | 36290 ft | 452 kts | 317° |
| 2026-04-30 09:51 | 46.69978 | 23.71663 | 36296 ft | 452 kts | 317° |
| 2026-04-30 09:52 | 46.74725 | 23.65639 | 36298 ft | 453 kts | 318° |
| 2026-04-30 09:52 | 46.79478 | 23.59593 | 36296 ft | 453 kts | 318° |
| 2026-04-30 09:53 | 46.84227 | 23.53538 | 36296 ft | 454 kts | 318° |
| 2026-04-30 09:53 | 46.88978 | 23.47465 | 36298 ft | 454 kts | 318° |
| 2026-04-30 09:54 | 46.93734 | 23.41371 | 36287 ft | 454 kts | 318° |
| 2026-04-30 09:54 | 46.98487 | 23.35265 | 36289 ft | 454 kts | 318° |
| 2026-04-30 09:55 | 47.03238 | 23.29147 | 36288 ft | 455 kts | 318° |
| 2026-04-30 09:55 | 47.07988 | 23.23015 | 36288 ft | 455 kts | 319° |
| 2026-04-30 09:56 | 47.12700 | 23.16918 | 36294 ft | 454 kts | 319° |
| 2026-04-30 09:56 | 47.17433 | 23.10777 | 36292 ft | 454 kts | 319° |
| 2026-04-30 09:57 | 47.22160 | 23.04631 | 36298 ft | 453 kts | 319° |
| 2026-04-30 09:57 | 47.26875 | 22.98483 | 36297 ft | 453 kts | 319° |
| 2026-04-30 09:58 | 47.31585 | 22.92327 | 36304 ft | 452 kts | 319° |
| 2026-04-30 09:58 | 47.36291 | 22.86162 | 36305 ft | 453 kts | 319° |
| 2026-04-30 09:59 | 47.45705 | 22.73781 | 36310 ft | 454 kts | 319° |
| 2026-04-30 10:00 | 47.52767 | 22.64454 | 36313 ft | 454 kts | 318° |
| 2026-04-30 10:01 | 47.59836 | 22.55084 | 36320 ft | 455 kts | 319° |
| 2026-04-30 10:02 | 47.66897 | 22.45683 | 36324 ft | 454 kts | 319° |
| 2026-04-30 10:02 | 47.71591 | 22.39415 | 36330 ft | 454 kts | 319° |
| 2026-04-30 10:03 | 47.76274 | 22.33148 | 36328 ft | 453 kts | 319° |
| 2026-04-30 10:03 | 47.80944 | 22.26882 | 36336 ft | 452 kts | 319° |
| 2026-04-30 10:04 | 47.85598 | 22.20621 | 36340 ft | 451 kts | 319° |
| 2026-04-30 10:04 | 47.90240 | 22.14359 | 36347 ft | 450 kts | 319° |
| 2026-04-30 10:05 | 47.94866 | 22.08105 | 36348 ft | 449 kts | 319° |
| 2026-04-30 10:05 | 47.99486 | 22.01843 | 36364 ft | 448 kts | 319° |
| 2026-04-30 10:06 | 48.04101 | 21.95571 | 36362 ft | 449 kts | 319° |
| 2026-04-30 10:06 | 48.08717 | 21.89283 | 36371 ft | 449 kts | 319° |
| 2026-04-30 10:07 | 48.13299 | 21.83024 | 36366 ft | 449 kts | 319° |
| 2026-04-30 10:07 | 48.17920 | 21.76696 | 36370 ft | 450 kts | 319° |
| 2026-04-30 10:08 | 48.22533 | 21.70365 | 36369 ft | 450 kts | 319° |
| 2026-04-30 10:08 | 48.27153 | 21.64005 | 36368 ft | 450 kts | 319° |
| 2026-04-30 10:09 | 48.31767 | 21.57638 | 36376 ft | 451 kts | 319° |
| 2026-04-30 10:09 | 48.36380 | 21.51256 | 36378 ft | 451 kts | 319° |
| 2026-04-30 10:10 | 48.40987 | 21.44866 | 36381 ft | 451 kts | 319° |
| 2026-04-30 10:10 | 48.45591 | 21.38462 | 36388 ft | 450 kts | 319° |
| 2026-04-30 10:11 | 48.50195 | 21.32052 | 36394 ft | 450 kts | 320° |
| 2026-04-30 10:11 | 48.52742 | 21.29350 | 36394 ft | 447 kts | 334° |
| 2026-04-30 10:11 | 48.55649 | 21.27731 | 36404 ft | 445 kts | 346° |
| 2026-04-30 10:12 | 48.61693 | 21.25701 | 36402 ft | 445 kts | 348° |
| 2026-04-30 10:12 | 48.67758 | 21.23768 | 36402 ft | 445 kts | 348° |
| 2026-04-30 10:13 | 48.73801 | 21.21758 | 36398 ft | 445 kts | 347° |
| 2026-04-30 10:13 | 48.79795 | 21.19708 | 36408 ft | 444 kts | 347° |
| 2026-04-30 10:14 | 48.85859 | 21.17618 | 36397 ft | 444 kts | 347° |
| 2026-04-30 10:14 | 48.94842 | 21.14514 | 36390 ft | 443 kts | 347° |
| 2026-04-30 10:15 | 49.00851 | 21.12433 | 36389 ft | 443 kts | 347° |
| 2026-04-30 10:15 | 49.06856 | 21.10348 | 36388 ft | 442 kts | 347° |
| 2026-04-30 10:16 | 49.12860 | 21.08259 | 36386 ft | 442 kts | 347° |
| 2026-04-30 10:17 | 49.21850 | 21.05120 | 36383 ft | 442 kts | 347° |
| 2026-04-30 10:17 | 49.30831 | 21.01906 | 36379 ft | 442 kts | 341° |
| 2026-04-30 10:18 | 49.33595 | 20.99871 | 36400 ft | 442 kts | 328° |
| 2026-04-30 10:18 | 49.35958 | 20.96836 | 36386 ft | 446 kts | 314° |
| 2026-04-30 10:19 | 49.41833 | 20.85748 | 36384 ft | 449 kts | 310° |
| 2026-04-30 10:19 | 49.45735 | 20.78182 | 36387 ft | 448 kts | 311° |
| 2026-04-30 10:20 | 49.49629 | 20.70724 | 36385 ft | 446 kts | 311° |
| 2026-04-30 10:20 | 49.55467 | 20.59601 | 36397 ft | 448 kts | 311° |
| 2026-04-30 10:21 | 49.59382 | 20.52125 | 36395 ft | 449 kts | 311° |
| 2026-04-30 10:21 | 49.63294 | 20.44631 | 36396 ft | 448 kts | 311° |
| 2026-04-30 10:22 | 49.67198 | 20.37128 | 36397 ft | 448 kts | 311° |
| 2026-04-30 10:22 | 49.71089 | 20.29629 | 36390 ft | 446 kts | 311° |
| 2026-04-30 10:23 | 49.74964 | 20.22139 | 36406 ft | 447 kts | 311° |
| 2026-04-30 10:23 | 49.78844 | 20.14619 | 36407 ft | 447 kts | 311° |
| 2026-04-30 10:24 | 49.82717 | 20.07091 | 36411 ft | 446 kts | 311° |
| 2026-04-30 10:24 | 49.86577 | 19.99566 | 36430 ft | 446 kts | 311° |
| 2026-04-30 10:25 | 49.90425 | 19.92043 | 36440 ft | 445 kts | 311° |
| 2026-04-30 10:25 | 49.93616 | 19.85788 | 36447 ft | 445 kts | 311° |
| 2026-04-30 10:26 | 49.97452 | 19.78251 | 36453 ft | 445 kts | 311° |
| 2026-04-30 10:26 | 50.01902 | 19.69478 | 36454 ft | 444 kts | 311° |
| 2026-04-30 10:27 | 50.05104 | 19.63149 | 36455 ft | 444 kts | 311° |
| 2026-04-30 10:27 | 50.08924 | 19.55577 | 36452 ft | 445 kts | 311° |
| 2026-04-30 10:28 | 50.12740 | 19.47991 | 36444 ft | 445 kts | 311° |
| 2026-04-30 10:28 | 50.14654 | 19.44180 | 36274 ft | 448 kts | 311° |
| 2026-04-30 10:28 | 50.16577 | 19.40343 | 35733 ft | 448 kts | 311° |
| 2026-04-30 10:29 | 50.18480 | 19.36538 | 35222 ft | 442 kts | 312° |
| 2026-04-30 10:29 | 50.20351 | 19.32786 | 34695 ft | 434 kts | 312° |
| 2026-04-30 10:29 | 50.22182 | 19.29111 | 34141 ft | 423 kts | 312° |
| 2026-04-30 10:29 | 50.23965 | 19.25526 | 33537 ft | 414 kts | 312° |
| 2026-04-30 10:30 | 50.25709 | 19.22019 | 32945 ft | 405 kts | 312° |
| 2026-04-30 10:30 | 50.27419 | 19.18576 | 32366 ft | 396 kts | 312° |
| 2026-04-30 10:30 | 50.29091 | 19.15209 | 31808 ft | 388 kts | 312° |
| 2026-04-30 10:30 | 50.30709 | 19.11947 | 31263 ft | 381 kts | 312° |
| 2026-04-30 10:31 | 50.32340 | 19.08655 | 30715 ft | 374 kts | 312° |
| 2026-04-30 10:31 | 50.33898 | 19.05507 | 30116 ft | 368 kts | 312° |
| 2026-04-30 10:31 | 50.35451 | 19.02365 | 29495 ft | 361 kts | 312° |
| 2026-04-30 10:31 | 50.36975 | 18.99276 | 28885 ft | 355 kts | 312° |
| 2026-04-30 10:32 | 50.38469 | 18.96243 | 28348 ft | 348 kts | 312° |
| 2026-04-30 10:32 | 50.39932 | 18.93271 | 27855 ft | 341 kts | 312° |
| 2026-04-30 10:32 | 50.41363 | 18.90361 | 27402 ft | 334 kts | 312° |
| 2026-04-30 10:32 | 50.42768 | 18.87501 | 26959 ft | 329 kts | 312° |
| 2026-04-30 10:33 | 50.44167 | 18.84654 | 26526 ft | 330 kts | 312° |
| 2026-04-30 10:33 | 50.45571 | 18.81795 | 26104 ft | 332 kts | 312° |
| 2026-04-30 10:33 | 50.46976 | 18.78927 | 25683 ft | 331 kts | 311° |
| 2026-04-30 10:33 | 50.48368 | 18.76081 | 25260 ft | 327 kts | 311° |
| 2026-04-30 10:34 | 50.49744 | 18.73262 | 24843 ft | 323 kts | 311° |
| 2026-04-30 10:34 | 50.51105 | 18.70471 | 24456 ft | 322 kts | 311° |
| 2026-04-30 10:34 | 50.52473 | 18.67667 | 24100 ft | 324 kts | 311° |
| 2026-04-30 10:34 | 50.53848 | 18.64845 | 23666 ft | 325 kts | 311° |
| 2026-04-30 10:35 | 50.55222 | 18.62021 | 23216 ft | 325 kts | 311° |
| 2026-04-30 10:35 | 50.56592 | 18.59199 | 22776 ft | 324 kts | 311° |
| 2026-04-30 10:35 | 50.57955 | 18.56389 | 22353 ft | 322 kts | 311° |
| 2026-04-30 10:35 | 50.59312 | 18.53590 | 21924 ft | 321 kts | 311° |
| 2026-04-30 10:36 | 50.60662 | 18.50803 | 21614 ft | 319 kts | 311° |
| 2026-04-30 10:36 | 50.62017 | 18.48007 | 21550 ft | 330 kts | 311° |
| 2026-04-30 10:36 | 50.63438 | 18.45072 | 21511 ft | 339 kts | 311° |
| 2026-04-30 10:36 | 50.64856 | 18.42092 | 21459 ft | 340 kts | 308° |
| 2026-04-30 10:37 | 50.66061 | 18.38860 | 21079 ft | 347 kts | 301° |
| 2026-04-30 10:37 | 50.67081 | 18.35406 | 20673 ft | 345 kts | 299° |
| 2026-04-30 10:37 | 50.68050 | 18.32006 | 20246 ft | 343 kts | 299° |
| 2026-04-30 10:37 | 50.69022 | 18.28578 | 19723 ft | 342 kts | 299° |
| 2026-04-30 10:38 | 50.69995 | 18.25165 | 19273 ft | 340 kts | 299° |
| 2026-04-30 10:38 | 50.70968 | 18.21770 | 18816 ft | 339 kts | 299° |
| 2026-04-30 10:38 | 50.71940 | 18.18390 | 18306 ft | 337 kts | 300° |
| 2026-04-30 10:38 | 50.72909 | 18.15032 | 17824 ft | 335 kts | 299° |
| 2026-04-30 10:39 | 50.73870 | 18.11698 | 17380 ft | 332 kts | 300° |
| 2026-04-30 10:39 | 50.74823 | 18.08392 | 16927 ft | 330 kts | 300° |
| 2026-04-30 10:39 | 50.75768 | 18.05110 | 16495 ft | 328 kts | 300° |
| 2026-04-30 10:39 | 50.76709 | 18.01843 | 16053 ft | 326 kts | 299° |
| 2026-04-30 10:40 | 50.77643 | 17.98592 | 15622 ft | 324 kts | 299° |
| 2026-04-30 10:40 | 50.78571 | 17.95355 | 15187 ft | 323 kts | 299° |
| 2026-04-30 10:40 | 50.79496 | 17.92126 | 14769 ft | 321 kts | 299° |
| 2026-04-30 10:40 | 50.80416 | 17.88915 | 14348 ft | 320 kts | 299° |
| 2026-04-30 10:41 | 50.81334 | 17.85703 | 13879 ft | 320 kts | 299° |
| 2026-04-30 10:41 | 50.82249 | 17.82506 | 13412 ft | 319 kts | 299° |
| 2026-04-30 10:41 | 50.83156 | 17.79321 | 12999 ft | 316 kts | 299° |
| 2026-04-30 10:41 | 50.84055 | 17.76160 | 12577 ft | 315 kts | 298° |
| 2026-04-30 10:42 | 50.84945 | 17.73025 | 12483 ft | 310 kts | 298° |
| 2026-04-30 10:42 | 50.85813 | 17.69959 | 12465 ft | 301 kts | 298° |
| 2026-04-30 10:42 | 50.86646 | 17.67004 | 12455 ft | 287 kts | 299° |
| 2026-04-30 10:42 | 50.87440 | 17.64188 | 12451 ft | 273 kts | 299° |
| 2026-04-30 10:43 | 50.88211 | 17.61446 | 11658 ft | 284 kts | 299° |
| 2026-04-30 10:43 | 50.89055 | 17.58495 | 11134 ft | 292 kts | 298° |
| 2026-04-30 10:43 | 50.89862 | 17.55629 | 11138 ft | 279 kts | 298° |
| 2026-04-30 10:43 | 50.90649 | 17.52831 | 10832 ft | 279 kts | 298° |
| 2026-04-30 10:44 | 50.91433 | 17.50042 | 10414 ft | 276 kts | 298° |
| 2026-04-30 10:44 | 50.92212 | 17.47272 | 9919 ft | 275 kts | 298° |
| 2026-04-30 10:44 | 50.92987 | 17.44506 | 9384 ft | 275 kts | 298° |
| 2026-04-30 10:44 | 50.93781 | 17.41743 | 8835 ft | 275 kts | 300° |
| 2026-04-30 10:45 | 50.94627 | 17.39037 | 8319 ft | 273 kts | 301° |
| 2026-04-30 10:45 | 50.95481 | 17.36340 | 7791 ft | 274 kts | 300° |
| 2026-04-30 10:45 | 50.96317 | 17.33672 | 7613 ft | 264 kts | 300° |
| 2026-04-30 10:45 | 50.97121 | 17.31100 | 7358 ft | 258 kts | 301° |
| 2026-04-30 10:46 | 50.97913 | 17.28576 | 7075 ft | 254 kts | 300° |
| 2026-04-30 10:46 | 50.98692 | 17.26079 | 6738 ft | 251 kts | 300° |
| 2026-04-30 10:46 | 50.99463 | 17.23594 | 6297 ft | 251 kts | 300° |
| 2026-04-30 10:46 | 51.00223 | 17.21146 | 5874 ft | 247 kts | 300° |
| 2026-04-30 10:47 | 51.00973 | 17.18737 | 5437 ft | 239 kts | 300° |
| 2026-04-30 10:47 | 51.01692 | 17.16408 | 5054 ft | 232 kts | 300° |
| 2026-04-30 10:47 | 51.02385 | 17.14163 | 4710 ft | 224 kts | 299° |
| 2026-04-30 10:47 | 51.03061 | 17.11975 | 4257 ft | 217 kts | 300° |
| 2026-04-30 10:48 | 51.03720 | 17.09852 | 3814 ft | 212 kts | 300° |
| 2026-04-30 10:48 | 51.04357 | 17.07770 | 3328 ft | 206 kts | 300° |
| 2026-04-30 10:48 | 51.04974 | 17.05768 | 2859 ft | 200 kts | 301° |
| 2026-04-30 10:48 | 51.05583 | 17.03820 | 2529 ft | 190 kts | 302° |
| 2026-04-30 10:49 | 51.06158 | 17.02010 | 2208 ft | 178 kts | 299° |
| 2026-04-30 10:49 | 51.06665 | 17.00349 | 2015 ft | 157 kts | 301° |
| 2026-04-30 10:49 | 51.07151 | 16.98857 | 1810 ft | 146 kts | 303° |
| 2026-04-30 10:49 | 51.07581 | 16.97376 | 1616 ft | 146 kts | 302° |
| 2026-04-30 10:50 | 51.08027 | 16.95907 | 1327 ft | 148 kts | 299° |
| 2026-04-30 10:50 | 51.08465 | 16.94437 | 1059 ft | 145 kts | 300° |
| 2026-04-30 10:50 | 51.08895 | 16.93032 | 821 ft | 139 kts | 301° |
| 2026-04-30 10:50 | 51.09324 | 16.91665 | 679 ft | 138 kts | 300° |
| 2026-04-30 10:51 | 51.09748 | 16.90274 | 492 ft | 140 kts | 300° |
| 2026-04-30 10:51 | 51.10166 | 16.88908 | 400 ft | 130 kts | 298° |
| 2026-04-30 10:51 | 51.10477 | 16.87900 | 402 ft | 71 kts | 296° |
| 2026-04-30 10:51 | 51.10603 | 16.87502 | 402 ft | 10 kts | 297° |
| 2026-04-30 10:52 | 51.10665 | 16.87303 | 402 ft | 26 kts | 294° |
| 2026-04-30 10:52 | 51.10716 | 16.87239 | 403 ft | 2 kts | 18° |
| 2026-04-30 10:52 | 51.10727 | 16.87246 | 400 ft | 1 kts | 24° |
| 2026-04-30 10:52 | 51.10761 | 16.87273 | 402 ft | 12 kts | 27° |
| 2026-04-30 10:53 | 51.10875 | 16.87365 | 399 ft | 22 kts | 26° |
| 2026-04-30 10:53 | 51.10946 | 16.87436 | 402 ft | 3 kts | 72° |
| 2026-04-30 10:53 | 51.10943 | 16.87462 | 402 ft | 11 kts | 99° |
| 2026-04-30 10:53 | 51.10900 | 16.87633 | 402 ft | 15 kts | 116° |
| 2026-04-30 10:54 | 51.10891 | 16.87672 | 402 ft | 0 kts | 87° |
| 2026-04-30 10:54 | 51.10900 | 16.87686 | 402 ft | 2 kts | 35° |
| 2026-04-30 10:54 | 51.10920 | 16.87702 | 402 ft | 5 kts | 27° |
| 2026-04-30 10:54 | 51.10944 | 16.87720 | 402 ft | 1 kts | 25° |
| 2026-04-30 10:55 | 51.10947 | 16.87722 | 402 ft | 0 kts | 26° |
| 2026-04-30 10:55 | 51.10947 | 16.87723 | 402 ft | 0 kts | 26° |